sensor_id;sensor_type;location;lat;lon;timestamp;P1;durP1;ratioP1;P2;durP2;ratioP2
2930;SDS011;1475;51.454;7.150;2022-07-17T00:00:16;5.15;;;2.50;;
2930;SDS011;1475;51.454;7.150;2022-07-17T00:02:43;4.38;;;2.50;;
2930;SDS011;1475;51.454;7.150;2022-07-17T00:05:11;5.03;;;2.50;;
2930;SDS011;1475;51.454;7.150;2022-07-17T00:07:38;5.70;;;2.45;;
2930;SDS011;1475;51.454;7.150;2022-07-17T00:10:05;5.38;;;2.67;;
2930;SDS011;1475;51.454;7.150;2022-07-17T00:12:32;4.63;;;2.97;;
2930;SDS011;1475;51.454;7.150;2022-07-17T00:14:59;6.40;;;2.10;;
2930;SDS011;1475;51.454;7.150;2022-07-17T00:17:26;6.65;;;2.67;;
2930;SDS011;1475;51.454;7.150;2022-07-17T00:19:54;4.03;;;2.40;;
2930;SDS011;1475;51.454;7.150;2022-07-17T00:22:22;5.43;;;2.33;;
2930;SDS011;1475;51.454;7.150;2022-07-17T00:24:49;4.40;;;2.30;;
2930;SDS011;1475;51.454;7.150;2022-07-17T00:27:15;6.53;;;2.60;;
2930;SDS011;1475;51.454;7.150;2022-07-17T00:29:42;5.90;;;2.50;;
2930;SDS011;1475;51.454;7.150;2022-07-17T00:32:09;7.28;;;2.78;;
2930;SDS011;1475;51.454;7.150;2022-07-17T00:34:35;8.10;;;3.10;;
2930;SDS011;1475;51.454;7.150;2022-07-17T00:37:02;5.95;;;2.30;;
2930;SDS011;1475;51.454;7.150;2022-07-17T00:39:30;5.93;;;2.13;;
2930;SDS011;1475;51.454;7.150;2022-07-17T00:41:57;4.20;;;2.35;;
2930;SDS011;1475;51.454;7.150;2022-07-17T00:44:25;4.45;;;2.25;;
2930;SDS011;1475;51.454;7.150;2022-07-17T00:46:52;5.53;;;2.75;;
2930;SDS011;1475;51.454;7.150;2022-07-17T00:49:19;7.30;;;3.15;;
2930;SDS011;1475;51.454;7.150;2022-07-17T00:51:46;5.95;;;2.80;;
2930;SDS011;1475;51.454;7.150;2022-07-17T00:54:13;6.47;;;2.80;;
2930;SDS011;1475;51.454;7.150;2022-07-17T00:56:42;7.03;;;2.53;;
2930;SDS011;1475;51.454;7.150;2022-07-17T00:59:12;4.55;;;1.90;;
2930;SDS011;1475;51.454;7.150;2022-07-17T01:01:40;4.72;;;2.30;;
2930;SDS011;1475;51.454;7.150;2022-07-17T01:04:07;6.03;;;2.73;;
2930;SDS011;1475;51.454;7.150;2022-07-17T01:06:34;7.15;;;2.60;;
2930;SDS011;1475;51.454;7.150;2022-07-17T01:09:01;9.23;;;2.70;;
2930;SDS011;1475;51.454;7.150;2022-07-17T01:11:27;5.80;;;2.40;;
2930;SDS011;1475;51.454;7.150;2022-07-17T01:13:56;6.68;;;2.40;;
2930;SDS011;1475;51.454;7.150;2022-07-17T01:16:23;4.78;;;2.55;;
2930;SDS011;1475;51.454;7.150;2022-07-17T01:18:50;6.25;;;2.60;;
2930;SDS011;1475;51.454;7.150;2022-07-17T01:21:20;3.45;;;2.40;;
2930;SDS011;1475;51.454;7.150;2022-07-17T01:23:46;6.60;;;2.60;;
2930;SDS011;1475;51.454;7.150;2022-07-17T01:26:13;3.83;;;2.30;;
2930;SDS011;1475;51.454;7.150;2022-07-17T01:28:40;4.28;;;2.20;;
2930;SDS011;1475;51.454;7.150;2022-07-17T01:31:07;5.47;;;2.50;;
2930;SDS011;1475;51.454;7.150;2022-07-17T01:33:33;4.55;;;2.33;;
2930;SDS011;1475;51.454;7.150;2022-07-17T01:36:01;4.00;;;2.22;;
2930;SDS011;1475;51.454;7.150;2022-07-17T01:38:29;4.30;;;2.22;;
2930;SDS011;1475;51.454;7.150;2022-07-17T01:40:56;5.68;;;2.30;;
2930;SDS011;1475;51.454;7.150;2022-07-17T01:43:23;5.25;;;2.70;;
2930;SDS011;1475;51.454;7.150;2022-07-17T01:45:49;4.40;;;2.20;;
2930;SDS011;1475;51.454;7.150;2022-07-17T01:48:23;4.80;;;2.45;;
2930;SDS011;1475;51.454;7.150;2022-07-17T01:50:50;3.70;;;2.25;;
2930;SDS011;1475;51.454;7.150;2022-07-17T01:53:17;6.80;;;2.83;;
2930;SDS011;1475;51.454;7.150;2022-07-17T01:55:45;7.82;;;3.40;;
2930;SDS011;1475;51.454;7.150;2022-07-17T01:58:12;7.50;;;2.50;;
2930;SDS011;1475;51.454;7.150;2022-07-17T02:00:39;4.68;;;2.40;;
2930;SDS011;1475;51.454;7.150;2022-07-17T02:03:06;6.32;;;3.00;;
2930;SDS011;1475;51.454;7.150;2022-07-17T02:05:33;6.73;;;3.60;;
2930;SDS011;1475;51.454;7.150;2022-07-17T02:08:00;7.47;;;3.00;;
2930;SDS011;1475;51.454;7.150;2022-07-17T02:10:27;7.05;;;2.50;;
2930;SDS011;1475;51.454;7.150;2022-07-17T02:12:56;8.40;;;2.30;;
2930;SDS011;1475;51.454;7.150;2022-07-17T02:15:23;4.68;;;2.63;;
2930;SDS011;1475;51.454;7.150;2022-07-17T02:17:50;4.35;;;2.38;;
2930;SDS011;1475;51.454;7.150;2022-07-17T02:20:17;6.30;;;2.75;;
2930;SDS011;1475;51.454;7.150;2022-07-17T02:22:43;6.07;;;3.03;;
2930;SDS011;1475;51.454;7.150;2022-07-17T02:25:11;6.90;;;3.17;;
2930;SDS011;1475;51.454;7.150;2022-07-17T02:27:38;4.10;;;2.40;;
2930;SDS011;1475;51.454;7.150;2022-07-17T02:30:08;4.82;;;2.20;;
2930;SDS011;1475;51.454;7.150;2022-07-17T02:32:36;6.25;;;2.35;;
2930;SDS011;1475;51.454;7.150;2022-07-17T02:35:04;4.47;;;2.25;;
2930;SDS011;1475;51.454;7.150;2022-07-17T02:37:31;7.32;;;2.90;;
2930;SDS011;1475;51.454;7.150;2022-07-17T02:39:58;5.22;;;2.45;;
2930;SDS011;1475;51.454;7.150;2022-07-17T02:42:25;4.55;;;2.50;;
2930;SDS011;1475;51.454;7.150;2022-07-17T02:44:54;3.85;;;2.13;;
2930;SDS011;1475;51.454;7.150;2022-07-17T02:47:23;5.50;;;2.60;;
2930;SDS011;1475;51.454;7.150;2022-07-17T02:49:51;4.32;;;2.50;;
2930;SDS011;1475;51.454;7.150;2022-07-17T02:52:18;7.53;;;2.63;;
2930;SDS011;1475;51.454;7.150;2022-07-17T02:54:46;6.13;;;2.70;;
2930;SDS011;1475;51.454;7.150;2022-07-17T02:57:13;7.07;;;2.90;;
2930;SDS011;1475;51.454;7.150;2022-07-17T02:59:40;7.97;;;3.70;;
2930;SDS011;1475;51.454;7.150;2022-07-17T03:02:07;5.50;;;2.63;;
2930;SDS011;1475;51.454;7.150;2022-07-17T03:04:35;4.88;;;2.92;;
2930;SDS011;1475;51.454;7.150;2022-07-17T03:07:02;6.25;;;2.92;;
2930;SDS011;1475;51.454;7.150;2022-07-17T03:09:29;6.20;;;2.92;;
2930;SDS011;1475;51.454;7.150;2022-07-17T03:11:56;5.40;;;2.80;;
2930;SDS011;1475;51.454;7.150;2022-07-17T03:14:22;5.40;;;3.00;;
2930;SDS011;1475;51.454;7.150;2022-07-17T03:16:49;6.75;;;3.30;;
2930;SDS011;1475;51.454;7.150;2022-07-17T03:19:16;5.50;;;3.60;;
2930;SDS011;1475;51.454;7.150;2022-07-17T03:21:45;5.78;;;3.08;;
2930;SDS011;1475;51.454;7.150;2022-07-17T03:24:12;6.43;;;3.10;;
2930;SDS011;1475;51.454;7.150;2022-07-17T03:26:38;6.40;;;3.30;;
2930;SDS011;1475;51.454;7.150;2022-07-17T03:29:05;7.20;;;3.20;;
2930;SDS011;1475;51.454;7.150;2022-07-17T03:31:32;5.15;;;3.15;;
2930;SDS011;1475;51.454;7.150;2022-07-17T03:33:58;10.07;;;4.30;;
2930;SDS011;1475;51.454;7.150;2022-07-17T03:36:25;6.15;;;2.90;;
2930;SDS011;1475;51.454;7.150;2022-07-17T03:38:53;5.30;;;3.47;;
2930;SDS011;1475;51.454;7.150;2022-07-17T03:41:20;6.90;;;3.17;;
2930;SDS011;1475;51.454;7.150;2022-07-17T03:43:47;4.80;;;2.80;;
2930;SDS011;1475;51.454;7.150;2022-07-17T03:46:13;5.60;;;2.78;;
2930;SDS011;1475;51.454;7.150;2022-07-17T03:48:40;6.60;;;3.35;;
2930;SDS011;1475;51.454;7.150;2022-07-17T03:51:07;5.38;;;3.47;;
2930;SDS011;1475;51.454;7.150;2022-07-17T03:53:33;5.97;;;3.30;;
2930;SDS011;1475;51.454;7.150;2022-07-17T03:56:02;6.57;;;2.95;;
2930;SDS011;1475;51.454;7.150;2022-07-17T03:58:29;4.90;;;3.03;;
2930;SDS011;1475;51.454;7.150;2022-07-17T04:00:56;6.18;;;3.55;;
2930;SDS011;1475;51.454;7.150;2022-07-17T04:03:23;6.15;;;2.97;;
2930;SDS011;1475;51.454;7.150;2022-07-17T04:05:51;6.78;;;3.30;;
2930;SDS011;1475;51.454;7.150;2022-07-17T04:08:17;5.25;;;2.90;;
2930;SDS011;1475;51.454;7.150;2022-07-17T04:10:44;4.07;;;2.80;;
2930;SDS011;1475;51.454;7.150;2022-07-17T04:13:12;6.10;;;2.85;;
2930;SDS011;1475;51.454;7.150;2022-07-17T04:15:39;5.65;;;3.08;;
2930;SDS011;1475;51.454;7.150;2022-07-17T04:18:17;5.28;;;3.20;;
2930;SDS011;1475;51.454;7.150;2022-07-17T04:20:44;6.40;;;3.30;;
2930;SDS011;1475;51.454;7.150;2022-07-17T04:23:11;5.95;;;3.10;;
2930;SDS011;1475;51.454;7.150;2022-07-17T04:25:38;3.72;;;2.80;;
2930;SDS011;1475;51.454;7.150;2022-07-17T04:28:05;8.60;;;3.10;;
2930;SDS011;1475;51.454;7.150;2022-07-17T04:30:34;4.82;;;2.80;;
2930;SDS011;1475;51.454;7.150;2022-07-17T04:33:01;6.30;;;3.22;;
2930;SDS011;1475;51.454;7.150;2022-07-17T04:35:27;5.40;;;2.90;;
2930;SDS011;1475;51.454;7.150;2022-07-17T04:37:55;5.93;;;3.17;;
2930;SDS011;1475;51.454;7.150;2022-07-17T04:40:22;5.35;;;2.80;;
2930;SDS011;1475;51.454;7.150;2022-07-17T04:42:49;4.53;;;3.10;;
2930;SDS011;1475;51.454;7.150;2022-07-17T04:45:16;5.20;;;3.20;;
2930;SDS011;1475;51.454;7.150;2022-07-17T04:47:44;5.03;;;3.20;;
2930;SDS011;1475;51.454;7.150;2022-07-17T04:50:10;7.32;;;3.10;;
2930;SDS011;1475;51.454;7.150;2022-07-17T04:52:37;5.07;;;3.53;;
2930;SDS011;1475;51.454;7.150;2022-07-17T04:55:04;6.95;;;3.22;;
2930;SDS011;1475;51.454;7.150;2022-07-17T04:57:31;5.45;;;2.95;;
2930;SDS011;1475;51.454;7.150;2022-07-17T04:59:58;7.18;;;3.00;;
2930;SDS011;1475;51.454;7.150;2022-07-17T05:02:24;5.70;;;3.00;;
2930;SDS011;1475;51.454;7.150;2022-07-17T05:04:52;9.15;;;3.10;;
2930;SDS011;1475;51.454;7.150;2022-07-17T05:07:19;4.55;;;3.10;;
2930;SDS011;1475;51.454;7.150;2022-07-17T05:09:46;6.50;;;3.00;;
2930;SDS011;1475;51.454;7.150;2022-07-17T05:12:13;4.40;;;2.78;;
2930;SDS011;1475;51.454;7.150;2022-07-17T05:14:40;5.85;;;3.08;;
2930;SDS011;1475;51.454;7.150;2022-07-17T05:17:06;5.18;;;2.75;;
2930;SDS011;1475;51.454;7.150;2022-07-17T05:19:33;6.20;;;3.40;;
2930;SDS011;1475;51.454;7.150;2022-07-17T05:22:02;6.05;;;3.20;;
2930;SDS011;1475;51.454;7.150;2022-07-17T05:24:29;5.95;;;2.90;;
2930;SDS011;1475;51.454;7.150;2022-07-17T05:26:58;7.47;;;3.58;;
2930;SDS011;1475;51.454;7.150;2022-07-17T05:29:25;5.55;;;3.05;;
2930;SDS011;1475;51.454;7.150;2022-07-17T05:31:52;5.38;;;3.42;;
2930;SDS011;1475;51.454;7.150;2022-07-17T05:34:20;5.30;;;2.53;;
2930;SDS011;1475;51.454;7.150;2022-07-17T05:36:47;5.25;;;2.55;;
2930;SDS011;1475;51.454;7.150;2022-07-17T05:39:15;7.80;;;3.13;;
2930;SDS011;1475;51.454;7.150;2022-07-17T05:41:42;6.70;;;3.60;;
2930;SDS011;1475;51.454;7.150;2022-07-17T05:44:09;6.85;;;3.17;;
2930;SDS011;1475;51.454;7.150;2022-07-17T05:46:35;5.75;;;3.03;;
2930;SDS011;1475;51.454;7.150;2022-07-17T05:49:02;7.47;;;3.42;;
2930;SDS011;1475;51.454;7.150;2022-07-17T05:51:29;7.47;;;3.20;;
2930;SDS011;1475;51.454;7.150;2022-07-17T05:53:56;4.68;;;2.30;;
2930;SDS011;1475;51.454;7.150;2022-07-17T05:56:24;5.28;;;2.80;;
2930;SDS011;1475;51.454;7.150;2022-07-17T05:58:51;4.00;;;2.50;;
2930;SDS011;1475;51.454;7.150;2022-07-17T06:01:18;5.38;;;2.80;;
2930;SDS011;1475;51.454;7.150;2022-07-17T06:03:45;5.65;;;3.08;;
2930;SDS011;1475;51.454;7.150;2022-07-17T06:06:11;6.65;;;3.13;;
2930;SDS011;1475;51.454;7.150;2022-07-17T06:08:38;5.50;;;2.93;;
2930;SDS011;1475;51.454;7.150;2022-07-17T06:11:05;5.80;;;2.75;;
2930;SDS011;1475;51.454;7.150;2022-07-17T06:13:34;6.68;;;3.30;;
2930;SDS011;1475;51.454;7.150;2022-07-17T06:16:01;5.35;;;2.92;;
2930;SDS011;1475;51.454;7.150;2022-07-17T06:18:28;5.57;;;3.10;;
2930;SDS011;1475;51.454;7.150;2022-07-17T06:20:55;5.00;;;2.60;;
2930;SDS011;1475;51.454;7.150;2022-07-17T06:23:21;3.80;;;2.40;;
2930;SDS011;1475;51.454;7.150;2022-07-17T06:25:48;5.60;;;2.38;;
2930;SDS011;1475;51.454;7.150;2022-07-17T06:28:15;5.15;;;2.53;;
2930;SDS011;1475;51.454;7.150;2022-07-17T06:30:43;6.07;;;2.50;;
2930;SDS011;1475;51.454;7.150;2022-07-17T06:33:10;5.20;;;2.70;;
2930;SDS011;1475;51.454;7.150;2022-07-17T06:35:37;5.80;;;2.50;;
2930;SDS011;1475;51.454;7.150;2022-07-17T06:38:04;6.10;;;2.60;;
2930;SDS011;1475;51.454;7.150;2022-07-17T06:40:30;4.45;;;2.30;;
2930;SDS011;1475;51.454;7.150;2022-07-17T06:42:57;4.75;;;2.95;;
2930;SDS011;1475;51.454;7.150;2022-07-17T06:45:24;5.90;;;2.50;;
2930;SDS011;1475;51.454;7.150;2022-07-17T06:47:52;5.20;;;2.80;;
2930;SDS011;1475;51.454;7.150;2022-07-17T06:50:19;5.00;;;2.50;;
2930;SDS011;1475;51.454;7.150;2022-07-17T06:52:46;5.90;;;2.35;;
2930;SDS011;1475;51.454;7.150;2022-07-17T06:55:13;4.85;;;2.13;;
2930;SDS011;1475;51.454;7.150;2022-07-17T06:57:39;6.32;;;2.50;;
2930;SDS011;1475;51.454;7.150;2022-07-17T07:00:06;7.75;;;2.90;;
2930;SDS011;1475;51.454;7.150;2022-07-17T07:02:35;6.15;;;2.60;;
2930;SDS011;1475;51.454;7.150;2022-07-17T07:05:03;5.22;;;2.70;;
2930;SDS011;1475;51.454;7.150;2022-07-17T07:07:31;6.90;;;2.90;;
2930;SDS011;1475;51.454;7.150;2022-07-17T07:09:57;10.15;;;3.20;;
2930;SDS011;1475;51.454;7.150;2022-07-17T07:12:24;5.97;;;2.63;;
2930;SDS011;1475;51.454;7.150;2022-07-17T07:14:51;6.45;;;2.40;;
2930;SDS011;1475;51.454;7.150;2022-07-17T07:17:18;4.65;;;2.55;;
2930;SDS011;1475;51.454;7.150;2022-07-17T07:19:45;4.25;;;2.50;;
2930;SDS011;1475;51.454;7.150;2022-07-17T07:22:13;6.32;;;2.50;;
2930;SDS011;1475;51.454;7.150;2022-07-17T07:24:40;5.53;;;2.72;;
2930;SDS011;1475;51.454;7.150;2022-07-17T07:27:07;5.45;;;3.25;;
2930;SDS011;1475;51.454;7.150;2022-07-17T07:29:34;5.88;;;2.10;;
2930;SDS011;1475;51.454;7.150;2022-07-17T07:32:00;5.45;;;2.40;;
2930;SDS011;1475;51.454;7.150;2022-07-17T07:34:27;5.93;;;2.22;;
2930;SDS011;1475;51.454;7.150;2022-07-17T07:36:55;5.20;;;2.33;;
2930;SDS011;1475;51.454;7.150;2022-07-17T07:39:23;6.65;;;2.95;;
2930;SDS011;1475;51.454;7.150;2022-07-17T07:41:50;4.18;;;2.47;;
2930;SDS011;1475;51.454;7.150;2022-07-17T07:44:16;5.40;;;2.60;;
2930;SDS011;1475;51.454;7.150;2022-07-17T07:46:44;3.80;;;2.00;;
2930;SDS011;1475;51.454;7.150;2022-07-17T07:49:10;4.07;;;2.15;;
2930;SDS011;1475;51.454;7.150;2022-07-17T07:51:37;5.20;;;3.00;;
2930;SDS011;1475;51.454;7.150;2022-07-17T07:54:04;5.93;;;2.50;;
2930;SDS011;1475;51.454;7.150;2022-07-17T07:56:32;5.43;;;2.60;;
2930;SDS011;1475;51.454;7.150;2022-07-17T07:59:00;4.20;;;1.73;;
2930;SDS011;1475;51.454;7.150;2022-07-17T08:01:26;6.00;;;1.98;;
2930;SDS011;1475;51.454;7.150;2022-07-17T08:03:53;5.93;;;2.45;;
2930;SDS011;1475;51.454;7.150;2022-07-17T08:06:20;4.88;;;2.40;;
2930;SDS011;1475;51.454;7.150;2022-07-17T08:08:47;4.60;;;2.00;;
2930;SDS011;1475;51.454;7.150;2022-07-17T08:11:14;4.03;;;2.00;;
2930;SDS011;1475;51.454;7.150;2022-07-17T08:13:42;4.40;;;2.10;;
2930;SDS011;1475;51.454;7.150;2022-07-17T08:16:09;4.40;;;2.10;;
2930;SDS011;1475;51.454;7.150;2022-07-17T08:18:36;5.70;;;2.22;;
2930;SDS011;1475;51.454;7.150;2022-07-17T08:21:03;4.15;;;1.85;;
2930;SDS011;1475;51.454;7.150;2022-07-17T08:23:30;5.10;;;2.50;;
2930;SDS011;1475;51.454;7.150;2022-07-17T08:25:56;5.80;;;2.42;;
2930;SDS011;1475;51.454;7.150;2022-07-17T08:28:23;4.15;;;1.98;;
2930;SDS011;1475;51.454;7.150;2022-07-17T08:30:51;4.35;;;2.10;;
2930;SDS011;1475;51.454;7.150;2022-07-17T08:33:18;4.47;;;2.40;;
2930;SDS011;1475;51.454;7.150;2022-07-17T08:35:45;4.93;;;2.15;;
2930;SDS011;1475;51.454;7.150;2022-07-17T08:38:12;4.30;;;2.00;;
2930;SDS011;1475;51.454;7.150;2022-07-17T08:40:39;4.50;;;2.22;;
2930;SDS011;1475;51.454;7.150;2022-07-17T08:43:09;5.40;;;2.20;;
2930;SDS011;1475;51.454;7.150;2022-07-17T08:45:37;6.25;;;2.20;;
2930;SDS011;1475;51.454;7.150;2022-07-17T08:48:07;3.13;;;1.58;;
2930;SDS011;1475;51.454;7.150;2022-07-17T08:50:39;4.93;;;1.80;;
2930;SDS011;1475;51.454;7.150;2022-07-17T08:53:06;5.78;;;1.80;;
2930;SDS011;1475;51.454;7.150;2022-07-17T08:55:33;4.00;;;2.00;;
2930;SDS011;1475;51.454;7.150;2022-07-17T08:58:00;5.05;;;2.00;;
2930;SDS011;1475;51.454;7.150;2022-07-17T09:00:27;5.70;;;2.10;;
2930;SDS011;1475;51.454;7.150;2022-07-17T09:02:56;4.78;;;1.88;;
2930;SDS011;1475;51.454;7.150;2022-07-17T09:05:27;7.00;;;1.93;;
2930;SDS011;1475;51.454;7.150;2022-07-17T09:07:55;6.38;;;2.03;;
2930;SDS011;1475;51.454;7.150;2022-07-17T09:10:29;4.43;;;1.50;;
2930;SDS011;1475;51.454;7.150;2022-07-17T09:13:00;4.32;;;2.00;;
2930;SDS011;1475;51.454;7.150;2022-07-17T09:15:39;3.70;;;1.92;;
2930;SDS011;1475;51.454;7.150;2022-07-17T09:18:06;4.63;;;2.00;;
2930;SDS011;1475;51.454;7.150;2022-07-17T09:20:34;6.32;;;2.55;;
2930;SDS011;1475;51.454;7.150;2022-07-17T09:23:04;5.15;;;2.15;;
2930;SDS011;1475;51.454;7.150;2022-07-17T09:25:32;5.13;;;1.95;;
2930;SDS011;1475;51.454;7.150;2022-07-17T09:28:00;3.65;;;1.45;;
2930;SDS011;1475;51.454;7.150;2022-07-17T09:30:28;5.38;;;1.75;;
2930;SDS011;1475;51.454;7.150;2022-07-17T09:32:56;6.30;;;2.50;;
2930;SDS011;1475;51.454;7.150;2022-07-17T09:35:23;5.57;;;1.90;;
2930;SDS011;1475;51.454;7.150;2022-07-17T09:37:52;5.20;;;2.10;;
2930;SDS011;1475;51.454;7.150;2022-07-17T09:40:19;6.20;;;2.00;;
2930;SDS011;1475;51.454;7.150;2022-07-17T09:43:05;5.53;;;2.00;;
2930;SDS011;1475;51.454;7.150;2022-07-17T09:45:32;3.90;;;1.90;;
2930;SDS011;1475;51.454;7.150;2022-07-17T09:48:00;5.40;;;1.92;;
2930;SDS011;1475;51.454;7.150;2022-07-17T09:50:28;5.70;;;1.85;;
2930;SDS011;1475;51.454;7.150;2022-07-17T09:52:57;4.90;;;1.80;;
2930;SDS011;1475;51.454;7.150;2022-07-17T09:55:26;8.52;;;2.40;;
2930;SDS011;1475;51.454;7.150;2022-07-17T09:57:56;3.90;;;1.90;;
2930;SDS011;1475;51.454;7.150;2022-07-17T10:00:25;4.35;;;2.35;;
2930;SDS011;1475;51.454;7.150;2022-07-17T10:02:52;4.65;;;2.30;;
2930;SDS011;1475;51.454;7.150;2022-07-17T10:05:19;5.47;;;2.30;;
2930;SDS011;1475;51.454;7.150;2022-07-17T10:07:47;3.05;;;1.60;;
2930;SDS011;1475;51.454;7.150;2022-07-17T10:10:16;4.85;;;2.00;;
2930;SDS011;1475;51.454;7.150;2022-07-17T10:12:44;4.43;;;2.03;;
2930;SDS011;1475;51.454;7.150;2022-07-17T10:15:14;5.28;;;2.40;;
2930;SDS011;1475;51.454;7.150;2022-07-17T10:17:41;4.68;;;2.42;;
2930;SDS011;1475;51.454;7.150;2022-07-17T10:20:09;4.85;;;2.00;;
2930;SDS011;1475;51.454;7.150;2022-07-17T10:22:43;5.47;;;2.33;;
2930;SDS011;1475;51.454;7.150;2022-07-17T10:25:12;5.20;;;2.10;;
2930;SDS011;1475;51.454;7.150;2022-07-17T10:27:47;5.03;;;2.65;;
2930;SDS011;1475;51.454;7.150;2022-07-17T10:30:19;5.53;;;2.40;;
2930;SDS011;1475;51.454;7.150;2022-07-17T10:32:51;3.83;;;1.98;;
2930;SDS011;1475;51.454;7.150;2022-07-17T10:35:19;5.80;;;2.60;;
2930;SDS011;1475;51.454;7.150;2022-07-17T10:37:46;4.78;;;2.13;;
2930;SDS011;1475;51.454;7.150;2022-07-17T10:40:15;3.38;;;1.95;;
2930;SDS011;1475;51.454;7.150;2022-07-17T10:42:55;5.07;;;2.03;;
2930;SDS011;1475;51.454;7.150;2022-07-17T10:45:24;4.70;;;2.28;;
2930;SDS011;1475;51.454;7.150;2022-07-17T10:47:54;3.78;;;2.25;;
2930;SDS011;1475;51.454;7.150;2022-07-17T10:50:24;4.70;;;2.30;;
2930;SDS011;1475;51.454;7.150;2022-07-17T10:55:47;6.50;;;2.72;;
2930;SDS011;1475;51.454;7.150;2022-07-17T10:58:17;6.80;;;2.50;;
2930;SDS011;1475;51.454;7.150;2022-07-17T11:00:55;5.05;;;3.08;;
2930;SDS011;1475;51.454;7.150;2022-07-17T11:03:27;6.35;;;2.50;;
2930;SDS011;1475;51.454;7.150;2022-07-17T11:05:54;3.63;;;2.08;;
2930;SDS011;1475;51.454;7.150;2022-07-17T11:08:20;4.80;;;2.00;;
2930;SDS011;1475;51.454;7.150;2022-07-17T11:10:47;4.10;;;2.13;;
2930;SDS011;1475;51.454;7.150;2022-07-17T11:13:15;7.20;;;2.30;;
2930;SDS011;1475;51.454;7.150;2022-07-17T11:15:44;4.47;;;2.40;;
2930;SDS011;1475;51.454;7.150;2022-07-17T11:18:15;4.25;;;1.80;;
2930;SDS011;1475;51.454;7.150;2022-07-17T11:20:49;5.50;;;2.30;;
2930;SDS011;1475;51.454;7.150;2022-07-17T11:23:17;5.00;;;2.50;;
2930;SDS011;1475;51.454;7.150;2022-07-17T11:25:52;4.68;;;1.90;;
2930;SDS011;1475;51.454;7.150;2022-07-17T11:28:29;5.20;;;2.15;;
2930;SDS011;1475;51.454;7.150;2022-07-17T11:30:56;4.68;;;2.50;;
2930;SDS011;1475;51.454;7.150;2022-07-17T11:33:23;5.88;;;2.10;;
2930;SDS011;1475;51.454;7.150;2022-07-17T11:35:50;4.60;;;2.35;;
2930;SDS011;1475;51.454;7.150;2022-07-17T11:38:23;4.25;;;2.10;;
2930;SDS011;1475;51.454;7.150;2022-07-17T11:40:50;4.28;;;2.17;;
2930;SDS011;1475;51.454;7.150;2022-07-17T11:43:17;4.60;;;2.00;;
2930;SDS011;1475;51.454;7.150;2022-07-17T11:45:46;5.23;;;2.30;;
2930;SDS011;1475;51.454;7.150;2022-07-17T11:48:13;5.22;;;2.40;;
2930;SDS011;1475;51.454;7.150;2022-07-17T11:50:40;4.57;;;1.70;;
2930;SDS011;1475;51.454;7.150;2022-07-17T11:53:07;4.40;;;1.73;;
2930;SDS011;1475;51.454;7.150;2022-07-17T11:55:36;5.30;;;2.10;;
2930;SDS011;1475;51.454;7.150;2022-07-17T11:58:05;4.90;;;2.08;;
2930;SDS011;1475;51.454;7.150;2022-07-17T12:00:32;5.32;;;2.30;;
2930;SDS011;1475;51.454;7.150;2022-07-17T12:03:01;4.10;;;2.10;;
2930;SDS011;1475;51.454;7.150;2022-07-17T12:05:31;3.15;;;1.65;;
2930;SDS011;1475;51.454;7.150;2022-07-17T12:08:00;4.43;;;2.10;;
2930;SDS011;1475;51.454;7.150;2022-07-17T12:10:28;4.38;;;2.35;;
2930;SDS011;1475;51.454;7.150;2022-07-17T12:12:58;5.35;;;2.28;;
2930;SDS011;1475;51.454;7.150;2022-07-17T12:15:37;5.80;;;2.40;;
2930;SDS011;1475;51.454;7.150;2022-07-17T12:18:07;4.97;;;2.10;;
2930;SDS011;1475;51.454;7.150;2022-07-17T12:20:46;4.97;;;2.92;;
2930;SDS011;1475;51.454;7.150;2022-07-17T12:26:04;5.28;;;2.38;;
2930;SDS011;1475;51.454;7.150;2022-07-17T12:28:32;4.35;;;2.33;;
2930;SDS011;1475;51.454;7.150;2022-07-17T12:30:59;3.50;;;2.22;;
2930;SDS011;1475;51.454;7.150;2022-07-17T12:33:27;4.95;;;2.20;;
2930;SDS011;1475;51.454;7.150;2022-07-17T12:35:54;7.05;;;2.70;;
2930;SDS011;1475;51.454;7.150;2022-07-17T12:38:21;5.43;;;2.30;;
2930;SDS011;1475;51.454;7.150;2022-07-17T12:40:48;3.60;;;2.10;;
2930;SDS011;1475;51.454;7.150;2022-07-17T12:43:14;5.10;;;2.60;;
2930;SDS011;1475;51.454;7.150;2022-07-17T12:45:41;4.82;;;2.20;;
2930;SDS011;1475;51.454;7.150;2022-07-17T12:48:08;5.72;;;2.30;;
2930;SDS011;1475;51.454;7.150;2022-07-17T12:50:37;5.35;;;2.65;;
2930;SDS011;1475;51.454;7.150;2022-07-17T12:53:03;3.90;;;1.92;;
2930;SDS011;1475;51.454;7.150;2022-07-17T12:55:31;3.42;;;1.70;;
2930;SDS011;1475;51.454;7.150;2022-07-17T12:57:58;4.50;;;2.20;;
2930;SDS011;1475;51.454;7.150;2022-07-17T13:00:25;4.65;;;2.20;;
2930;SDS011;1475;51.454;7.150;2022-07-17T13:02:52;4.13;;;2.28;;
2930;SDS011;1475;51.454;7.150;2022-07-17T13:05:18;4.35;;;2.13;;
2930;SDS011;1475;51.454;7.150;2022-07-17T13:07:47;5.65;;;2.22;;
2930;SDS011;1475;51.454;7.150;2022-07-17T13:10:13;5.35;;;2.40;;
2930;SDS011;1475;51.454;7.150;2022-07-17T13:12:40;3.60;;;2.10;;
2930;SDS011;1475;51.454;7.150;2022-07-17T13:15:07;3.97;;;1.90;;
2930;SDS011;1475;51.454;7.150;2022-07-17T13:17:35;4.70;;;2.55;;
2930;SDS011;1475;51.454;7.150;2022-07-17T13:20:03;3.53;;;2.20;;
2930;SDS011;1475;51.454;7.150;2022-07-17T13:22:30;5.45;;;2.20;;
2930;SDS011;1475;51.454;7.150;2022-07-17T13:24:58;3.85;;;2.10;;
2930;SDS011;1475;51.454;7.150;2022-07-17T13:27:25;5.40;;;2.28;;
2930;SDS011;1475;51.454;7.150;2022-07-17T13:29:52;4.10;;;1.88;;
2930;SDS011;1475;51.454;7.150;2022-07-17T13:32:18;4.63;;;2.10;;
2930;SDS011;1475;51.454;7.150;2022-07-17T13:34:45;4.30;;;2.00;;
2930;SDS011;1475;51.454;7.150;2022-07-17T13:37:13;3.77;;;2.20;;
2930;SDS011;1475;51.454;7.150;2022-07-17T13:39:40;6.30;;;2.40;;
2930;SDS011;1475;51.454;7.150;2022-07-17T13:42:08;3.70;;;2.20;;
2930;SDS011;1475;51.454;7.150;2022-07-17T13:44:35;6.03;;;2.70;;
2930;SDS011;1475;51.454;7.150;2022-07-17T13:47:02;3.22;;;1.92;;
2930;SDS011;1475;51.454;7.150;2022-07-17T13:49:29;3.53;;;2.00;;
2930;SDS011;1475;51.454;7.150;2022-07-17T13:51:55;5.35;;;2.03;;
2930;SDS011;1475;51.454;7.150;2022-07-17T13:54:22;3.30;;;1.90;;
2930;SDS011;1475;51.454;7.150;2022-07-17T13:56:49;5.50;;;2.30;;
2930;SDS011;1475;51.454;7.150;2022-07-17T13:59:19;3.55;;;2.30;;
2930;SDS011;1475;51.454;7.150;2022-07-17T14:01:45;4.55;;;2.58;;
2930;SDS011;1475;51.454;7.150;2022-07-17T14:04:12;3.55;;;2.30;;
2930;SDS011;1475;51.454;7.150;2022-07-17T14:06:39;3.10;;;2.10;;
2930;SDS011;1475;51.454;7.150;2022-07-17T14:09:06;3.97;;;2.00;;
2930;SDS011;1475;51.454;7.150;2022-07-17T14:11:33;3.92;;;2.15;;
2930;SDS011;1475;51.454;7.150;2022-07-17T14:14:01;4.93;;;2.10;;
2930;SDS011;1475;51.454;7.150;2022-07-17T14:16:30;3.33;;;2.20;;
2930;SDS011;1475;51.454;7.150;2022-07-17T14:18:57;4.15;;;2.05;;
2930;SDS011;1475;51.454;7.150;2022-07-17T14:21:24;3.63;;;2.10;;
2930;SDS011;1475;51.454;7.150;2022-07-17T14:23:51;3.60;;;2.40;;
2930;SDS011;1475;51.454;7.150;2022-07-17T14:26:17;4.00;;;2.10;;
2930;SDS011;1475;51.454;7.150;2022-07-17T14:28:44;5.47;;;2.50;;
2930;SDS011;1475;51.454;7.150;2022-07-17T14:31:11;3.63;;;2.13;;
2930;SDS011;1475;51.454;7.150;2022-07-17T14:33:39;3.58;;;1.90;;
2930;SDS011;1475;51.454;7.150;2022-07-17T14:36:06;3.60;;;1.90;;
2930;SDS011;1475;51.454;7.150;2022-07-17T14:38:33;3.30;;;1.90;;
2930;SDS011;1475;51.454;7.150;2022-07-17T14:40:59;3.00;;;1.90;;
2930;SDS011;1475;51.454;7.150;2022-07-17T14:43:26;3.50;;;2.00;;
2930;SDS011;1475;51.454;7.150;2022-07-17T14:45:54;3.40;;;1.60;;
2930;SDS011;1475;51.454;7.150;2022-07-17T14:48:21;3.78;;;1.80;;
2930;SDS011;1475;51.454;7.150;2022-07-17T14:50:49;4.93;;;2.10;;
2930;SDS011;1475;51.454;7.150;2022-07-17T14:53:16;3.97;;;1.90;;
2930;SDS011;1475;51.454;7.150;2022-07-17T14:55:43;4.50;;;1.80;;
2930;SDS011;1475;51.454;7.150;2022-07-17T14:58:09;5.10;;;2.00;;
2930;SDS011;1475;51.454;7.150;2022-07-17T15:00:36;2.97;;;1.80;;
2930;SDS011;1475;51.454;7.150;2022-07-17T15:03:03;4.72;;;2.13;;
2930;SDS011;1475;51.454;7.150;2022-07-17T15:05:30;2.50;;;1.40;;
2930;SDS011;1475;51.454;7.150;2022-07-17T15:07:58;2.88;;;1.80;;
2930;SDS011;1475;51.454;7.150;2022-07-17T15:10:24;3.53;;;1.83;;
2930;SDS011;1475;51.454;7.150;2022-07-17T15:12:51;4.65;;;1.63;;
2930;SDS011;1475;51.454;7.150;2022-07-17T15:15:18;3.88;;;1.85;;
2930;SDS011;1475;51.454;7.150;2022-07-17T15:17:45;3.40;;;1.70;;
2930;SDS011;1475;51.454;7.150;2022-07-17T15:20:11;2.87;;;1.63;;
2930;SDS011;1475;51.454;7.150;2022-07-17T15:22:38;3.90;;;1.90;;